Time;durP1;ratioP1;P1;durP2;ratioP2;P2;SDS_P1;SDS_P2;PMS_P1;PMS_P2;Temp;Humidity;BMP_temperature;BMP_pressure;BME280_temperature;BME280_humidity;BME280_pressure;Samples;Min_cycle;Max_cycle;Signal;HPM_P1;HPM_P2
2021/04/25 15:35:41;;;;;;;;;;;;;;;17.42;22.01;102571.75;5094421;27;1314;-69
2021/04/25 15:38:07;;;;;;;;;;;;;;;14.64;26.66;102582.63;5039896;28;69792;-78
2021/04/25 15:40:35;;;;;;;;;;;;;;;14.04;27.94;102581.44;5045764;28;864;-81
2021/04/25 15:43:02;;;;;;;;;;;;;;;13.88;28.24;102578.34;5036470;28;4022;-80
2021/04/25 15:45:39;;;;;;;;;;;;;;;13.78;27.37;102584.19;5031057;28;1035;-79
2021/04/25 15:48:06;;;;;;;;;;;;;;;13.37;28.85;102574.28;5040382;28;3284;-79
2021/04/25 15:50:32;;;;;;;;;;;;;;;13.13;29.25;102578.25;5028615;28;1097;-80
2021/04/25 15:52:58;;;;;;;;;;;;;;;12.69;29.10;102570.81;5023826;28;988;-79
2021/04/25 15:55:24;;;;;;;;;;;;;;;12.77;30.08;102584.72;5021391;28;1906;-78
2021/04/25 15:57:50;;;;;;;;;;;;;;;13.04;29.31;102582.09;5043152;28;1425;-77
2021/04/25 16:00:16;;;;;;;;;;;;;;;12.60;29.05;102579.06;5037893;28;1438;-78
2021/04/25 16:02:43;;;;;;;;;;;;;;;12.33;30.45;102580.81;5044463;28;1397;-79
2021/04/25 16:05:11;;;;;;;;;;;;;;;12.15;30.82;102576.28;5061693;28;936;-78
2021/04/25 16:07:37;;;;;;;;;;;;;;;11.98;31.15;102574.16;5060093;28;857;-79
2021/04/25 16:10:03;;;;;;;;;;;;;;;11.95;31.31;102580.31;5037530;28;1182;-78
2021/04/25 16:12:29;;;;;;;;;;;;;;;11.99;31.74;102571.09;5036355;28;1031;-78
2021/04/25 16:14:54;;;;;;;;;;;;;;;11.92;31.33;102578.16;5035735;28;1961;-78
2021/04/25 16:17:19;;;;;;;;;;;;;;;11.75;31.95;102579.63;5032598;28;2931;-78
2021/04/25 16:19:44;;;;;;;;;;;;;;;11.73;31.31;102575.50;5036422;28;1308;-78
2021/04/25 16:22:10;;;;;;;;;;;;;;;11.72;32.18;102574.69;5036836;28;884;-80
2021/04/25 16:24:36;;;;;;;;;;;;;;;11.62;32.07;102574.91;5037216;28;921;-79
2021/04/25 16:27:02;;;;;;;;;;;;;;;11.52;32.16;102575.13;5037691;28;768;-78
2021/04/25 16:29:28;;;;;;;;;;;;;;;11.20;32.14;102577.66;5035932;28;1166;-78
2021/04/25 16:31:54;;;;;;;;;;;;;;;10.97;33.72;102579.50;5036699;28;923;-79
2021/04/25 16:34:19;;;;;;;;;;;;;;;10.85;33.55;102579.16;5035915;28;1890;-78
2021/04/25 16:36:45;;;;;;;;;;;;;;;10.72;33.63;102575.22;5037270;28;991;-79
2021/04/25 16:39:10;;;;;;;;;;;;;;;10.62;33.94;102576.19;5035862;28;1197;-78
2021/04/25 16:41:37;;;;;;;;;;;;;;;10.47;34.35;102577.28;5038321;28;915;-78
2021/04/25 16:44:03;;;;;;;;;;;;;;;10.35;34.13;102576.94;5038832;28;1071;-79
2021/04/25 16:46:29;;;;;;;;;;;;;;;10.26;34.62;102575.91;5028167;28;999;-78
2021/04/25 16:48:55;;;;;;;;;;;;;;;10.24;34.80;102575.41;5021813;28;1311;-79
2021/04/25 16:51:20;;;;;;;;;;;;;;;10.19;35.37;102586.53;5024594;28;1052;-79
2021/04/25 16:53:45;;;;;;;;;;;;;;;10.15;34.57;102581.59;5024006;28;1895;-79
2021/04/25 16:56:11;;;;;;;;;;;;;;;10.19;35.51;102584.59;5023763;28;937;-79
2021/04/25 16:58:36;;;;;;;;;;;;;;;10.24;35.60;102576.22;5023498;28;1236;-79
2021/04/25 17:01:02;;;;;;;;;;;;;;;10.16;35.67;102572.19;5025670;28;1059;-79
2021/04/25 17:03:27;;;;;;;;;;;;;;;10.09;35.20;102580.03;5025406;28;861;-78
2021/04/25 17:05:52;;;;;;;;;;;;;;;9.96;34.97;102576.06;5022033;28;1068;-78
2021/04/25 17:08:18;;;;;;;;;;;;;;;9.83;35.51;102581.50;5019237;28;1284;-78
2021/04/25 17:10:43;;;;;;;;;;;;;;;9.65;35.36;102572.09;5020200;28;745;-78
2021/04/25 17:13:08;;;;;;;;;;;;;;;9.48;35.87;102572.56;5019510;28;802;-78
2021/04/25 17:15:34;;;;;;;;;;;;;;;9.36;35.89;102573.81;5019015;28;1893;-77
2021/04/25 17:17:59;;;;;;;;;;;;;;;9.31;36.75;102573.88;5017812;28;1343;-78
2021/04/25 17:20:27;;;;;;;;;;;;;;;9.20;37.66;102581.44;5018789;28;778;-78
2021/04/25 17:22:52;;;;;;;;;;;;;;;9.08;38.08;102582.94;5011012;28;3333;-79
2021/04/25 17:25:19;;;;;;;;;;;;;;;8.99;38.56;102588.25;5015247;28;3555;-78
2021/04/25 17:27:47;;;;;;;;;;;;;;;8.87;39.40;102579.56;5018328;28;3154;-78
2021/04/25 17:30:15;;;;;;;;;;;;;;;8.75;39.11;102575.25;4999140;28;1035;-78
2021/04/25 17:32:41;;;;;;;;;;;;;;;8.66;39.06;102579.72;4999645;28;899;-77
2021/04/25 17:35:08;;;;;;;;;;;;;;;8.58;40.18;102581.19;5034139;28;1934;-78
2021/04/25 17:37:33;;;;;;;;;;;;;;;8.43;39.98;102589.56;5023558;28;3527;-79
2021/04/25 17:40:02;;;;;;;;;;;;;;;8.28;40.62;102583.00;5026537;28;3255;-78
2021/04/25 17:42:31;;;;;;;;;;;;;;;8.18;41.77;102583.06;5052578;28;1179;-77
2021/04/25 17:44:56;;;;;;;;;;;;;;;8.08;41.98;102585.88;5037470;28;3637;-79
2021/04/25 17:47:21;;;;;;;;;;;;;;;7.97;42.28;102581.56;5029551;28;3688;-78
2021/04/25 17:49:47;;;;;;;;;;;;;;;7.87;42.38;102580.53;5049389;28;1330;-79
2021/04/25 17:52:12;;;;;;;;;;;;;;;7.76;43.27;102576.16;5051217;28;3606;-78
2021/04/25 17:54:37;;;;;;;;;;;;;;;7.62;43.50;102578.69;5045258;28;1898;-78
2021/04/25 17:57:03;;;;;;;;;;;;;;;7.52;44.00;102578.72;5050318;28;1377;-79
2021/04/25 17:59:29;;;;;;;;;;;;;;;7.39;44.18;102577.41;5043812;28;1185;-79
2021/04/25 18:01:55;;;;;;;;;;;;;;;7.25;44.96;102574.44;5042885;28;813;-79
2021/04/25 18:04:21;;;;;;;;;;;;;;;7.13;45.36;102576.66;5041807;28;932;-79
2021/04/25 18:06:46;;;;;;;;;;;;;;;7.00;45.61;102569.81;5039348;28;1232;-78
2021/04/25 18:09:12;;;;;;;;;;;;;;;6.89;46.31;102568.19;5039685;28;1330;-77
2021/04/25 18:11:37;;;;;;;;;;;;;;;6.78;46.54;102567.34;5038407;28;923;-78
2021/04/25 18:14:03;;;;;;;;;;;;;;;6.68;46.81;102570.09;5039287;28;1898;-78
2021/04/25 18:16:28;;;;;;;;;;;;;;;6.65;47.02;102568.75;5038708;28;837;-78
2021/04/25 18:18:53;;;;;;;;;;;;;;;6.57;47.57;102569.28;5038085;28;1210;-77
2021/04/25 18:21:19;;;;;;;;;;;;;;;6.44;47.35;102572.56;5039928;28;925;-78
2021/04/25 18:23:44;;;;;;;;;;;;;;;6.32;47.38;102570.13;5039518;28;832;-79
2021/04/25 18:26:09;;;;;;;;;;;;;;;6.24;48.51;102573.38;5038718;28;810;-79
2021/04/25 18:28:35;;;;;;;;;;;;;;;6.14;48.45;102569.53;5038221;28;1189;-77
2021/04/25 18:31:01;;;;;;;;;;;;;;;6.02;49.46;102574.44;5039233;28;904;-79
2021/04/25 18:33:27;;;;;;;;;;;;;;;5.90;49.17;102579.31;5028320;28;2709;-78
2021/04/25 18:35:54;;;;;;;;;;;;;;;5.79;50.36;102583.94;5021029;28;1011;-78
2021/04/25 18:38:20;;;;;;;;;;;;;;;5.63;50.89;102580.31;5038923;28;1241;-78
2021/04/25 18:40:51;;;;;;;;;;;;;;;5.53;51.30;102583.81;5038877;28;857;-79
2021/04/25 18:43:17;;;;;;;;;;;;;;;5.44;50.68;102580.78;5038108;28;991;-78
2021/04/25 18:45:44;;;;;;;;;;;;;;;5.38;51.48;102581.00;5038447;28;801;-79
2021/04/25 18:48:11;;;;;;;;;;;;;;;5.34;52.30;102585.38;5035982;28;1380;-78
2021/04/25 18:50:37;;;;;;;;;;;;;;;5.27;52.18;102585.59;5036794;28;1435;-78
2021/04/25 18:53:04;;;;;;;;;;;;;;;5.09;52.98;102592.34;5044926;28;1377;-78
2021/04/25 18:55:31;;;;;;;;;;;;;;;4.99;53.28;102581.34;5037620;28;1902;-79
2021/04/25 18:57:57;;;;;;;;;;;;;;;4.94;53.71;102590.34;5036604;28;1427;-78
2021/04/25 19:00:25;;;;;;;;;;;;;;;4.89;53.74;102587.56;5036750;28;988;-78
2021/04/25 19:02:52;;;;;;;;;;;;;;;4.80;53.77;102594.63;5036375;28;719;-78
2021/04/25 19:05:17;;;;;;;;;;;;;;;4.79;54.59;102582.81;5036815;28;821;-78
2021/04/25 19:07:43;;;;;;;;;;;;;;;4.71;54.67;102595.09;5036016;28;1334;-79
2021/04/25 19:10:11;;;;;;;;;;;;;;;4.57;54.89;102596.63;5036821;28;916;-78
2021/04/25 19:12:36;;;;;;;;;;;;;;;4.40;55.71;102594.00;5036676;28;907;-78
2021/04/25 19:15:02;;;;;;;;;;;;;;;4.29;56.54;102603.16;5037267;28;1894;-78
2021/04/25 19:17:29;;;;;;;;;;;;;;;4.23;56.01;102593.28;5037245;28;804;-78
2021/04/25 19:19:55;;;;;;;;;;;;;;;4.20;56.14;102597.34;5037188;28;1327;-77
2021/04/25 19:22:20;;;;;;;;;;;;;;;4.19;56.78;102595.69;5036946;28;812;-77
2021/04/25 19:24:46;;;;;;;;;;;;;;;4.16;56.72;102598.94;5036584;28;1011;-78
2021/04/25 19:27:11;;;;;;;;;;;;;;;4.14;56.71;102593.72;5036267;28;840;-78
2021/04/25 19:29:36;;;;;;;;;;;;;;;4.05;57.33;102589.81;5035589;28;1221;-78
2021/04/25 19:32:03;;;;;;;;;;;;;;;3.98;57.40;102586.47;5036539;28;919;-77
2021/04/25 19:34:28;;;;;;;;;;;;;;;3.98;57.62;102591.09;5032220;28;2803;-77
2021/04/25 19:36:53;;;;;;;;;;;;;;;3.89;57.67;102598.91;5017504;28;832;-78
2021/04/25 19:39:19;;;;;;;;;;;;;;;3.80;58.10;102598.53;5016871;28;1367;-78
2021/04/25 19:41:46;;;;;;;;;;;;;;;3.71;58.40;102597.34;5016622;28;951;-78
2021/04/25 19:44:11;;;;;;;;;;;;;;;3.60;58.52;102598.28;5021037;28;1066;-78
2021/04/25 19:46:36;;;;;;;;;;;;;;;3.48;59.06;102599.25;5037473;28;984;-78
2021/04/25 19:49:03;;;;;;;;;;;;;;;3.37;59.60;102603.75;5039035;28;1268;-78
2021/04/25 19:51:28;;;;;;;;;;;;;;;3.31;59.76;102599.28;5036456;28;913;-78
2021/04/25 19:53:54;;;;;;;;;;;;;;;3.26;60.31;102606.59;5030245;28;1890;-78
2021/04/25 19:56:19;;;;;;;;;;;;;;;3.20;60.30;102611.13;5024480;28;1422;-78
2021/04/25 19:58:44;;;;;;;;;;;;;;;3.10;61.01;102600.06;5016064;28;1185;-78
2021/04/25 20:01:10;;;;;;;;;;;;;;;3.04;60.87;102604.59;5035032;28;1419;-78
2021/04/25 20:03:35;;;;;;;;;;;;;;;2.98;61.39;102609.16;5030150;28;2835;-78
2021/04/25 20:06:03;;;;;;;;;;;;;;;2.95;61.51;102614.31;5016675;28;800;-78
2021/04/25 20:08:28;;;;;;;;;;;;;;;2.86;61.36;102613.91;5014500;28;1694;-78
2021/04/25 20:10:56;;;;;;;;;;;;;;;2.80;62.03;102614.88;5016760;28;1684;-78
2021/04/25 20:13:24;;;;;;;;;;;;;;;2.74;62.37;102610.41;5034966;28;1501;-79
2021/04/25 20:15:50;;;;;;;;;;;;;;;2.69;62.43;102611.16;5036534;28;845;-78
2021/04/25 20:18:15;;;;;;;;;;;;;;;2.64;62.94;102611.06;5035623;28;1293;-78
2021/04/25 20:20:43;;;;;;;;;;;;;;;2.58;62.67;102610.16;5036913;28;809;-78
2021/04/25 20:23:10;;;;;;;;;;;;;;;2.52;63.08;102599.41;5039803;28;985;-79
2021/04/25 20:25:37;;;;;;;;;;;;;;;2.52;63.38;102597.50;5039824;28;1902;-78
2021/04/25 20:28:05;;;;;;;;;;;;;;;2.42;63.76;102595.44;5038721;28;1319;-78
2021/04/25 20:30:34;;;;;;;;;;;;;;;2.40;64.11;102596.75;5039628;28;1059;-78
2021/04/25 20:33:00;;;;;;;;;;;;;;;2.36;64.52;102590.13;5039636;28;1243;-78
2021/04/25 20:35:27;;;;;;;;;;;;;;;2.31;64.90;102595.50;5039670;28;1016;-79
2021/04/25 20:37:52;;;;;;;;;;;;;;;2.30;64.59;102593.81;5039191;28;1201;-78
2021/04/25 20:40:24;;;;;;;;;;;;;;;2.28;65.07;102595.97;5039809;28;891;-77
2021/04/25 20:42:50;;;;;;;;;;;;;;;2.21;65.07;102593.41;5039589;28;892;-78
2021/04/25 20:45:17;;;;;;;;;;;;;;;2.17;65.70;102600.44;5039684;28;1898;-77
2021/04/25 20:47:47;;;;;;;;;;;;;;;2.12;65.77;102592.16;5037478;28;1344;-78
2021/04/25 20:50:14;;;;;;;;;;;;;;;2.06;66.25;102591.22;5054936;28;991;-78
2021/04/25 20:52:41;;;;;;;;;;;;;;;2.01;66.54;102593.88;5038885;28;794;-78
2021/04/25 20:55:07;;;;;;;;;;;;;;;1.96;66.81;102591.84;5039267;28;1019;-78
2021/04/25 20:57:33;;;;;;;;;;;;;;;1.92;67.09;102589.84;5038804;28;888;-78
2021/04/25 20:59:59;;;;;;;;;;;;;;;1.86;66.77;102580.75;5048632;28;1443;-78
2021/04/25 21:02:25;;;;;;;;;;;;;;;1.81;66.94;102589.66;5058703;28;864;-78
2021/04/25 21:04:50;;;;;;;;;;;;;;;1.84;67.33;102580.19;5041854;28;2700;-78
2021/04/25 21:07:16;;;;;;;;;;;;;;;1.82;67.42;102585.88;5038995;28;876;-78
2021/04/25 21:09:41;;;;;;;;;;;;;;;1.82;67.30;102585.03;5037877;28;1205;-78
2021/04/25 21:12:06;;;;;;;;;;;;;;;1.88;67.21;102586.78;5039058;28;892;-78
2021/04/25 21:14:32;;;;;;;;;;;;;;;1.81;67.41;102583.38;5038703;28;884;-77
2021/04/25 21:16:57;;;;;;;;;;;;;;;1.70;67.38;102585.06;5038217;28;840;-78
2021/04/25 21:19:22;;;;;;;;;;;;;;;1.62;68.04;102582.72;5038320;28;1193;-78
2021/04/25 21:21:48;;;;;;;;;;;;;;;1.56;68.55;102579.06;5037077;28;867;-79
2021/04/25 21:24:15;;;;;;;;;;;;;;;1.50;68.51;102572.66;5038437;28;1885;-78
2021/04/25 21:26:40;;;;;;;;;;;;;;;1.47;68.54;102581.34;5038357;28;960;-78
2021/04/25 21:29:05;;;;;;;;;;;;;;;1.43;68.64;102580.16;5037631;28;1304;-77
2021/04/25 21:31:30;;;;;;;;;;;;;;;1.43;68.50;102579.31;5038089;28;932;-79
2021/04/25 21:33:56;;;;;;;;;;;;;;;1.43;67.93;102579.31;5037688;28;1465;-77
2021/04/25 21:36:21;;;;;;;;;;;;;;;1.44;68.53;102581.00;5038291;28;869;-78
2021/04/25 21:38:47;;;;;;;;;;;;;;;1.42;68.27;102586.69;5037470;28;1233;-78
2021/04/25 21:41:12;;;;;;;;;;;;;;;1.37;68.42;102583.84;5037793;28;979;-79
2021/04/25 21:43:39;;;;;;;;;;;;;;;1.32;68.52;102586.44;5032227;28;2702;-79
2021/04/25 21:46:04;;;;;;;;;;;;;;;1.24;68.57;102584.91;5036344;28;853;-79
2021/04/25 21:48:30;;;;;;;;;;;;;;;1.21;68.54;102588.13;5035475;28;1304;-78
2021/04/25 21:50:56;;;;;;;;;;;;;;;1.15;68.80;102583.63;5037131;28;806;-78
2021/04/25 21:53:21;;;;;;;;;;;;;;;1.10;69.25;102588.94;5036757;28;1300;-78
2021/04/25 21:55:46;;;;;;;;;;;;;;;1.07;69.01;102578.53;5038099;28;802;-77
2021/04/25 21:58:12;;;;;;;;;;;;;;;1.03;69.42;102580.91;5037308;28;1189;-78
2021/04/25 22:00:42;;;;;;;;;;;;;;;1.00;69.20;102577.81;5038438;28;1078;-78
2021/04/25 22:03:11;;;;;;;;;;;;;;;0.93;69.35;102576.06;5038211;28;888;-78
2021/04/25 22:05:37;;;;;;;;;;;;;;;0.89;70.00;102572.16;5039759;28;1960;-77
2021/04/25 22:08:03;;;;;;;;;;;;;;;0.86;70.25;102572.63;5037657;28;1283;-77
2021/04/25 22:10:28;;;;;;;;;;;;;;;0.81;70.35;102577.09;5037017;28;1261;-77
2021/04/25 22:12:54;;;;;;;;;;;;;;;0.76;70.10;102577.81;5038067;28;1063;-78
2021/04/25 22:15:19;;;;;;;;;;;;;;;0.77;70.42;102575.94;5038036;28;869;-77
2021/04/25 22:17:45;;;;;;;;;;;;;;;0.72;70.61;102574.72;5037611;28;1189;-79
2021/04/25 22:20:13;;;;;;;;;;;;;;;0.71;71.26;102564.09;5037908;28;983;-78
2021/04/25 22:22:39;;;;;;;;;;;;;;;0.67;71.23;102565.63;5037515;28;931;-78
2021/04/25 22:25:06;;;;;;;;;;;;;;;0.61;71.47;102569.31;5038016;28;1870;-78
2021/04/25 22:27:31;;;;;;;;;;;;;;;0.56;71.32;102567.28;5037075;28;1005;-79
2021/04/25 22:29:58;;;;;;;;;;;;;;;0.50;71.92;102565.47;5037317;28;1181;-77
2021/04/25 22:32:24;;;;;;;;;;;;;;;0.45;72.43;102562.63;5037295;28;1015;-79
2021/04/25 22:34:50;;;;;;;;;;;;;;;0.37;72.40;102559.19;5037039;28;1004;-78
2021/04/25 22:37:15;;;;;;;;;;;;;;;0.33;72.47;102558.03;5037426;28;999;-78
2021/04/25 22:39:40;;;;;;;;;;;;;;;0.30;73.29;102568.53;5035241;28;1189;-78
2021/04/25 22:42:06;;;;;;;;;;;;;;;0.26;73.27;102559.16;5037467;28;801;-78
2021/04/25 22:44:31;;;;;;;;;;;;;;;0.21;73.36;102559.03;5036442;28;1878;-78
2021/04/25 22:46:57;;;;;;;;;;;;;;;0.17;73.52;102551.38;5037391;28;1034;-78
2021/04/25 22:49:22;;;;;;;;;;;;;;;0.15;73.79;102549.94;5036532;28;1283;-78
2021/04/25 22:51:48;;;;;;;;;;;;;;;0.12;73.74;102553.09;5037533;28;885;-77
2021/04/25 22:54:15;;;;;;;;;;;;;;;0.09;73.58;102545.44;5036817;28;777;-78
2021/04/25 22:56:41;;;;;;;;;;;;;;;0.08;74.02;102547.31;5037025;28;828;-78
2021/04/25 22:59:06;;;;;;;;;;;;;;;0.08;74.22;102549.19;5036639;28;1284;-78
2021/04/25 23:01:32;;;;;;;;;;;;;;;0.05;74.06;102545.03;5036883;28;1010;-79
2021/04/25 23:03:57;;;;;;;;;;;;;;;0.03;73.89;102541.72;5036565;28;1949;-78
2021/04/25 23:06:23;;;;;;;;;;;;;;;0.02;74.65;102544.69;5036945;28;1093;-78
2021/04/25 23:08:48;;;;;;;;;;;;;;;-0.01;74.38;102540.56;5035859;28;1181;-77
2021/04/25 23:11:13;;;;;;;;;;;;;;;-0.07;74.60;102526.00;5036521;28;1259;-78
2021/04/25 23:13:38;;;;;;;;;;;;;;;-0.11;74.60;102540.28;5037384;28;1047;-78
2021/04/25 23:16:04;;;;;;;;;;;;;;;-0.14;74.72;102532.56;5036693;28;1018;-77
2021/04/25 23:18:29;;;;;;;;;;;;;;;-0.17;74.96;102528.44;5036029;28;1268;-79
2021/04/25 23:20:55;;;;;;;;;;;;;;;-0.23;75.03;102522.03;5035595;28;1504;-78
2021/04/25 23:23:20;;;;;;;;;;;;;;;-0.25;75.16;102526.06;5036572;28;995;-78
2021/04/25 23:25:45;;;;;;;;;;;;;;;-0.28;75.74;102526.50;5036604;28;1933;-78
2021/04/25 23:28:11;;;;;;;;;;;;;;;-0.27;75.95;102526.28;5036199;28;1295;-78
2021/04/25 23:30:36;;;;;;;;;;;;;;;-0.28;75.30;102524.59;5036769;28;870;-78
2021/04/25 23:33:01;;;;;;;;;;;;;;;-0.29;75.91;102525.69;5036090;28;968;-78
2021/04/25 23:35:27;;;;;;;;;;;;;;;-0.28;76.41;102526.50;5036413;28;1070;-78
2021/04/25 23:37:53;;;;;;;;;;;;;;;-0.27;76.82;102525.47;5034632;28;1330;-78
2021/04/25 23:40:19;;;;;;;;;;;;;;;-0.27;76.48;102520.84;5037008;28;975;-78
2021/04/25 23:42:44;;;;;;;;;;;;;;;-0.27;76.39;102520.84;5037019;28;899;-78
2021/04/25 23:45:10;;;;;;;;;;;;;;;-0.28;76.97;102521.88;5036958;28;1894;-79
2021/04/25 23:47:36;;;;;;;;;;;;;;;-0.28;76.62;102519.19;5039129;28;904;-78
2021/04/25 23:50:02;;;;;;;;;;;;;;;-0.25;77.27;102524.16;5036506;28;1182;-78
2021/04/25 23:52:27;;;;;;;;;;;;;;;-0.26;76.83;102519.81;5035444;28;976;-78
2021/04/25 23:54:53;;;;;;;;;;;;;;;-0.25;77.32;102510.56;5036006;28;939;-78
2021/04/25 23:57:18;;;;;;;;;;;;;;;-0.24;77.00;102522.28;5039858;28;995;-77
2021/04/25 23:59:43;;;;;;;;;;;;;;;-0.21;77.24;102513.66;5039819;28;1256;-77
